Time;durP1;ratioP1;P1;durP2;ratioP2;P2;SDS_P1;SDS_P2;PMS_P1;PMS_P2;Temp;Humidity;BMP_temperature;BMP_pressure;BME280_temperature;BME280_humidity;BME280_pressure;Samples;Min_cycle;Max_cycle;Signal;HPM_P1;HPM_P2
2022/01/05 00:01:08;;;;;;;4.53;2.70;;;6.10;96.20;;;;;;6244819;22;20657;-89
2022/01/05 00:03:35;;;;;;;1.77;1.57;;;6.20;96.00;;;;;;6244948;22;20484;-87
2022/01/05 00:06:03;;;;;;;1.67;1.57;;;6.10;96.00;;;;;;6245601;22;20203;-88
2022/01/05 00:08:30;;;;;;;1.50;1.40;;;6.10;96.40;;;;;;6246056;22;20215;-88
2022/01/05 00:10:58;;;;;;;1.30;1.20;;;6.00;96.80;;;;;;6245905;22;20276;-87
2022/01/05 00:13:26;;;;;;;4.37;2.77;;;5.90;97.00;;;;;;6246513;22;20631;-88
2022/01/05 00:15:53;;;;;;;1.30;1.20;;;5.90;96.50;;;;;;6244965;22;20204;-86
2022/01/05 00:18:20;;;;;;;1.10;1.00;;;5.80;96.10;;;;;;6245622;22;20157;-88
2022/01/05 00:20:48;;;;;;;1.20;1.10;;;5.80;96.60;;;;;;6244731;22;20193;-87
2022/01/05 00:23:15;;;;;;;3.03;2.27;;;5.80;96.50;;;;;;6244945;22;20173;-87
2022/01/05 00:25:42;;;;;;;1.60;1.50;;;5.80;97.20;;;;;;6244785;22;20193;-86
2022/01/05 00:28:10;;;;;;;1.50;1.40;;;5.80;97.00;;;;;;6245693;22;20281;-88
2022/01/05 00:30:38;;;;;;;2.17;1.50;;;5.70;97.10;;;;;;6245251;22;20276;-84
2022/01/05 00:33:06;;;;;;;2.00;1.73;;;5.70;96.50;;;;;;6245402;22;20211;-87
2022/01/05 00:35:33;;;;;;;1.83;1.50;;;5.50;96.90;;;;;;6244656;22;20227;-86
2022/01/05 00:38:00;;;;;;;1.50;1.40;;;5.40;97.40;;;;;;6245471;22;20169;-85
2022/01/05 00:40:27;;;;;;;1.53;1.27;;;5.40;97.40;;;;;;6245035;22;20193;-86
2022/01/05 00:42:54;;;;;;;2.90;1.43;;;5.30;97.40;;;;;;6247285;22;20489;-85
2022/01/05 00:45:23;;;;;;;2.53;1.40;;;5.40;97.50;;;;;;6247195;22;20280;-86
2022/01/05 00:47:52;;;;;;;1.23;1.17;;;5.40;97.10;;;;;;6247873;22;20240;-84
2022/01/05 00:50:19;;;;;;;0.90;0.90;;;5.40;96.90;;;;;;6247462;22;20516;-85
2022/01/05 00:52:45;;;;;;;3.20;2.20;;;5.10;96.60;;;;;;6247554;22;20177;-85
2022/01/05 00:55:12;;;;;;;0.87;0.87;;;5.10;97.70;;;;;;6247476;22;20205;-86
2022/01/05 00:57:40;;;;;;;0.83;0.83;;;5.10;97.00;;;;;;6248866;22;20169;-86
2022/01/05 01:00:08;;;;;;;1.13;0.83;;;5.00;97.10;;;;;;6249993;22;20711;-84
2022/01/05 01:02:35;;;;;;;0.93;0.83;;;4.80;97.00;;;;;;6250452;22;20169;-84
2022/01/05 01:05:04;;;;;;;0.80;0.80;;;4.60;97.10;;;;;;6251123;22;20193;-84
2022/01/05 01:07:31;;;;;;;1.47;1.00;;;4.60;97.60;;;;;;6251266;22;20605;-85
2022/01/05 01:09:58;;;;;;;0.90;0.90;;;4.60;97.70;;;;;;6251133;22;20201;-84
2022/01/05 01:12:25;;;;;;;1.33;0.90;;;4.50;97.60;;;;;;6251712;22;20537;-84
2022/01/05 01:14:52;;;;;;;0.90;0.90;;;4.50;97.60;;;;;;6251206;22;20276;-84
2022/01/05 01:17:21;;;;;;;1.00;1.00;;;4.60;97.80;;;;;;6251920;22;20201;-84
2022/01/05 01:19:48;;;;;;;1.27;1.17;;;4.70;97.60;;;;;;6251083;22;20193;-85
2022/01/05 01:22:16;;;;;;;0.90;0.90;;;4.70;98.10;;;;;;6255769;22;20183;-88
2022/01/05 01:24:43;;;;;;;0.70;0.70;;;4.80;97.90;;;;;;6266156;22;20200;-89
2022/01/05 01:27:10;;;;;;;0.70;0.70;;;4.70;97.50;;;;;;6258775;22;20224;-85
2022/01/05 01:29:38;;;;;;;1.37;0.80;;;4.60;97.60;;;;;;6246735;22;20481;-85
2022/01/05 01:32:05;;;;;;;0.57;0.57;;;4.50;97.90;;;;;;6247827;22;20200;-84
2022/01/05 01:34:33;;;;;;;1.50;1.13;;;4.40;97.90;;;;;;6247067;22;20201;-85
2022/01/05 01:37:01;;;;;;;0.57;0.57;;;4.40;98.10;;;;;;6247964;22;20169;-83
2022/01/05 01:39:29;;;;;;;0.80;0.77;;;4.60;97.70;;;;;;6247569;22;20321;-86
2022/01/05 01:41:56;;;;;;;0.80;0.80;;;4.60;97.60;;;;;;6249423;22;20183;-83
2022/01/05 01:44:24;;;;;;;1.00;1.00;;;4.60;96.70;;;;;;6247983;22;20172;-83
2022/01/05 01:46:51;;;;;;;0.70;0.70;;;4.50;96.80;;;;;;6247799;23;20189;-83
2022/01/05 01:49:18;;;;;;;0.80;0.80;;;4.50;96.90;;;;;;6248560;23;20653;-83
2022/01/05 01:51:45;;;;;;;0.80;0.80;;;4.50;97.10;;;;;;6248956;22;20267;-84
2022/01/05 01:54:12;;;;;;;0.60;0.60;;;4.40;97.30;;;;;;6250394;22;20228;-83
2022/01/05 01:56:40;;;;;;;0.50;0.50;;;4.40;97.10;;;;;;6249819;22;20215;-85
2022/01/05 01:59:08;;;;;;;0.57;0.57;;;4.20;97.20;;;;;;6251087;22;20229;-85
2022/01/05 02:01:35;;;;;;;0.57;0.57;;;4.10;97.60;;;;;;6251061;22;20199;-83
2022/01/05 02:04:02;;;;;;;1.00;0.80;;;4.10;98.10;;;;;;6248547;23;20478;-83
2022/01/05 02:06:31;;;;;;;0.70;0.70;;;4.20;98.60;;;;;;6250877;22;20514;-84
2022/01/05 02:08:59;;;;;;;0.60;0.60;;;4.30;98.00;;;;;;6251015;22;20212;-83
2022/01/05 02:11:27;;;;;;;0.63;0.63;;;4.20;97.50;;;;;;6250907;22;20204;-84
2022/01/05 02:13:55;;;;;;;0.70;0.70;;;4.20;97.70;;;;;;6251361;22;20180;-85
2022/01/05 02:16:29;;;;;;;0.80;0.80;;;4.20;97.50;;;;;;6249840;22;20276;-83
2022/01/05 02:18:59;;;;;;;0.60;0.60;;;4.20;97.50;;;;;;6249129;22;20185;-90
2022/01/05 02:21:28;;;;;;;0.70;0.70;;;4.10;97.60;;;;;;6249487;22;20989;-84
2022/01/05 02:23:55;;;;;;;0.80;0.80;;;4.10;97.80;;;;;;6250019;22;20471;-83
2022/01/05 02:26:23;;;;;;;1.03;1.00;;;4.10;98.00;;;;;;6250075;22;20262;-83
2022/01/05 02:28:51;;;;;;;1.17;1.07;;;4.10;98.10;;;;;;6249629;22;20228;-88
2022/01/05 02:31:18;;;;;;;0.63;0.63;;;4.20;98.10;;;;;;6249973;22;20205;-88
2022/01/05 02:33:45;;;;;;;0.80;0.80;;;4.10;98.00;;;;;;6250547;22;20169;-83
2022/01/05 02:36:17;;;;;;;0.60;0.60;;;4.20;97.80;;;;;;6249176;22;20197;-82
2022/01/05 02:38:46;;;;;;;0.60;0.60;;;4.10;97.50;;;;;;6250124;22;20244;-85
2022/01/05 02:41:13;;;;;;;0.63;0.60;;;4.10;98.00;;;;;;6249763;22;20193;-83
2022/01/05 02:43:42;;;;;;;0.80;0.80;;;4.10;97.70;;;;;;6253005;22;20253;-86
2022/01/05 02:46:11;;;;;;;0.60;0.60;;;4.10;98.00;;;;;;6248137;22;20279;-85
2022/01/05 02:48:38;;;;;;;0.50;0.50;;;4.00;98.20;;;;;;6248116;22;20239;-84
2022/01/05 02:51:06;;;;;;;1.40;0.67;;;3.90;98.10;;;;;;6247336;22;20253;-83
2022/01/05 02:53:33;;;;;;;0.93;0.87;;;4.00;98.60;;;;;;6246761;22;20169;-82
2022/01/05 02:56:02;;;;;;;0.50;0.50;;;4.00;98.40;;;;;;6247147;22;20656;-83
2022/01/05 02:58:29;;;;;;;0.70;0.70;;;4.00;98.50;;;;;;6247426;22;20176;-84
2022/01/05 03:00:56;;;;;;;0.80;0.80;;;4.00;98.30;;;;;;6247567;22;20288;-83
2022/01/05 03:03:24;;;;;;;0.63;0.63;;;4.00;98.50;;;;;;6246505;23;20204;-85
2022/01/05 03:05:50;;;;;;;0.70;0.70;;;4.10;98.60;;;;;;6247523;22;20517;-84
2022/01/05 03:08:18;;;;;;;0.60;0.60;;;4.30;98.30;;;;;;6248078;22;20553;-85
2022/01/05 03:10:45;;;;;;;0.90;0.80;;;4.20;98.00;;;;;;6246455;22;20197;-84
2022/01/05 03:13:13;;;;;;;0.70;0.70;;;4.20;98.50;;;;;;6245317;22;20184;-87
2022/01/05 03:15:41;;;;;;;0.77;0.77;;;4.30;98.00;;;;;;6244936;22;20507;-82
2022/01/05 03:18:08;;;;;;;0.70;0.70;;;4.20;97.80;;;;;;6247436;22;20170;-83
2022/01/05 03:20:36;;;;;;;0.80;0.60;;;4.20;97.90;;;;;;6247296;22;20220;-83
2022/01/05 03:23:04;;;;;;;0.70;0.70;;;4.20;98.10;;;;;;6248244;22;20180;-82
2022/01/05 03:25:32;;;;;;;0.70;0.70;;;4.30;98.10;;;;;;6247793;22;20201;-83
2022/01/05 03:28:00;;;;;;;0.70;0.70;;;4.30;97.90;;;;;;6249010;22;20176;-82
2022/01/05 03:30:30;;;;;;;0.70;0.70;;;4.30;98.10;;;;;;6247791;22;20657;-85
2022/01/05 03:33:11;;;;;;;1.00;0.90;;;4.30;98.10;;;;;;6249261;22;20176;-83
2022/01/05 03:35:42;;;;;;;0.83;0.70;;;4.30;97.80;;;;;;6248878;22;20200;-83
2022/01/05 03:38:11;;;;;;;0.80;0.80;;;4.30;98.30;;;;;;6249840;22;20160;-85
2022/01/05 03:40:39;;;;;;;0.97;0.90;;;4.30;98.10;;;;;;6249756;22;20220;-85
2022/01/05 03:43:07;;;;;;;0.70;0.70;;;4.20;98.30;;;;;;6259582;22;20224;-87
2022/01/05 03:45:37;;;;;;;0.80;0.80;;;4.30;98.60;;;;;;6262824;22;20232;-85
2022/01/05 03:48:06;;;;;;;0.80;0.80;;;4.20;98.40;;;;;;6253075;22;20192;-85
2022/01/05 03:50:34;;;;;;;0.70;0.70;;;4.30;98.50;;;;;;6244029;22;20227;-85
2022/01/05 03:53:02;;;;;;;1.30;0.90;;;4.30;98.60;;;;;;6244569;22;20557;-84
2022/01/05 03:55:29;;;;;;;0.80;0.80;;;4.30;98.60;;;;;;6243403;22;20653;-84
2022/01/05 03:57:56;;;;;;;0.50;0.50;;;4.20;98.80;;;;;;6244539;22;20173;-85
2022/01/05 04:00:24;;;;;;;1.40;0.80;;;4.20;98.60;;;;;;6243785;22;20197;-85
2022/01/05 04:02:52;;;;;;;0.70;0.70;;;4.10;98.50;;;;;;6244234;22;20169;-84
2022/01/05 04:05:19;;;;;;;0.70;0.70;;;4.30;98.60;;;;;;6243822;22;20285;-84
2022/01/05 04:07:47;;;;;;;0.83;0.70;;;4.10;98.50;;;;;;6244654;22;20180;-84
2022/01/05 04:10:14;;;;;;;0.77;0.77;;;4.20;98.60;;;;;;6243953;22;20604;-84
2022/01/05 04:12:41;;;;;;;0.60;0.60;;;4.20;98.60;;;;;;6244458;22;20172;-84
2022/01/05 04:15:08;;;;;;;0.57;0.50;;;4.20;99.00;;;;;;6243494;22;20267;-83
2022/01/05 04:17:35;;;;;;;0.53;0.53;;;4.20;98.40;;;;;;6244982;22;20267;-85
2022/01/05 04:20:05;;;;;;;0.60;0.60;;;4.20;98.30;;;;;;6243703;22;20259;-84
2022/01/05 04:22:32;;;;;;;0.50;0.50;;;4.30;98.40;;;;;;6244474;22;20601;-84
2022/01/05 04:24:59;;;;;;;0.50;0.50;;;4.20;98.30;;;;;;6243380;22;20675;-86
2022/01/05 04:27:26;;;;;;;0.50;0.50;;;4.20;98.00;;;;;;6244761;22;20170;-83
2022/01/05 04:29:53;;;;;;;0.53;0.53;;;4.20;98.20;;;;;;6243568;22;20243;-84
2022/01/05 04:32:20;;;;;;;0.57;0.57;;;4.10;98.20;;;;;;6244540;22;20169;-83
2022/01/05 04:34:47;;;;;;;0.60;0.60;;;4.00;98.30;;;;;;6243521;22;20280;-84
2022/01/05 04:37:16;;;;;;;0.40;0.40;;;4.00;98.30;;;;;;6245506;22;20166;-85
2022/01/05 04:39:43;;;;;;;0.73;0.73;;;4.00;98.50;;;;;;6244971;22;20176;-84
2022/01/05 04:42:10;;;;;;;0.60;0.60;;;4.00;98.20;;;;;;6245262;22;20166;-84
2022/01/05 04:44:37;;;;;;;0.50;0.50;;;4.00;98.60;;;;;;6245018;22;20251;-84
2022/01/05 04:47:05;;;;;;;0.50;0.50;;;4.10;98.40;;;;;;6245460;22;20166;-86
2022/01/05 04:49:32;;;;;;;0.90;0.73;;;4.00;98.30;;;;;;6244704;22;20193;-87
2022/01/05 04:51:59;;;;;;;0.60;0.60;;;4.00;98.30;;;;;;6245110;22;20170;-84
2022/01/05 04:54:27;;;;;;;0.50;0.50;;;4.00;98.30;;;;;;6245632;22;20395;-84
2022/01/05 04:56:54;;;;;;;0.60;0.60;;;4.00;98.20;;;;;;6245821;22;20182;-85
2022/01/05 04:59:21;;;;;;;0.80;0.53;;;4.00;98.00;;;;;;6246286;22;20165;-84
2022/01/05 05:01:48;;;;;;;0.60;0.60;;;3.90;97.90;;;;;;6245528;22;20207;-86
2022/01/05 05:04:15;;;;;;;0.60;0.60;;;3.90;98.10;;;;;;6245720;22;20175;-84
2022/01/05 05:06:42;;;;;;;1.80;0.70;;;3.90;98.10;;;;;;6245059;22;20196;-83
2022/01/05 05:09:09;;;;;;;0.63;0.63;;;3.80;98.40;;;;;;6246894;22;20458;-86
2022/01/05 05:11:38;;;;;;;0.70;0.70;;;3.80;98.40;;;;;;6246082;22;20204;-85
2022/01/05 05:14:05;;;;;;;1.90;0.57;;;3.70;98.60;;;;;;6246441;22;20230;-87
2022/01/05 05:16:32;;;;;;;0.57;0.57;;;3.80;98.90;;;;;;6244889;22;20275;-83
2022/01/05 05:18:59;;;;;;;0.57;0.57;;;4.00;98.80;;;;;;6245293;22;20169;-84
2022/01/05 05:21:26;;;;;;;0.70;0.70;;;3.90;98.40;;;;;;6245163;22;20201;-84
2022/01/05 05:23:53;;;;;;;2.53;0.80;;;4.00;98.40;;;;;;6245091;22;20175;-84
2022/01/05 05:26:20;;;;;;;0.73;0.70;;;4.00;98.40;;;;;;6245453;22;20197;-86
2022/01/05 05:28:48;;;;;;;0.57;0.57;;;4.00;98.50;;;;;;6247528;22;20256;-84
2022/01/05 05:31:16;;;;;;;0.60;0.60;;;3.90;98.40;;;;;;6247268;22;20633;-84
2022/01/05 05:33:43;;;;;;;0.93;0.93;;;4.00;98.50;;;;;;6248056;22;20165;-84
2022/01/05 05:36:10;;;;;;;1.00;0.80;;;4.00;98.20;;;;;;6252202;22;20521;-83
2022/01/05 05:38:37;;;;;;;0.67;0.60;;;4.00;98.20;;;;;;6249098;22;20169;-84
2022/01/05 05:41:04;;;;;;;0.60;0.60;;;3.90;98.30;;;;;;6248945;22;20205;-83
2022/01/05 05:43:31;;;;;;;0.70;0.70;;;4.00;98.50;;;;;;6248718;22;20166;-83
2022/01/05 05:45:59;;;;;;;0.97;0.87;;;4.00;98.40;;;;;;6248508;22;20245;-83
2022/01/05 05:48:26;;;;;;;1.70;0.70;;;3.90;98.60;;;;;;6250162;22;20166;-83
2022/01/05 05:50:53;;;;;;;1.37;0.50;;;3.90;98.60;;;;;;6249628;22;20287;-83
2022/01/05 05:53:20;;;;;;;1.07;0.67;;;3.90;98.60;;;;;;6250394;22;20247;-83
2022/01/05 05:55:47;;;;;;;0.63;0.63;;;3.90;98.70;;;;;;6250242;22;20224;-83
2022/01/05 05:58:15;;;;;;;1.37;0.50;;;4.00;98.80;;;;;;6250896;22;20758;-83
2022/01/05 06:00:42;;;;;;;0.77;0.60;;;4.00;98.90;;;;;;6250690;22;20509;-83
2022/01/05 06:03:10;;;;;;;1.13;0.60;;;4.10;99.10;;;;;;6261912;22;20285;-85
2022/01/05 06:05:37;;;;;;;0.60;0.60;;;4.10;98.60;;;;;;6259536;22;20647;-83
2022/01/05 06:08:05;;;;;;;0.50;0.50;;;4.10;98.60;;;;;;6246590;22;20175;-85
2022/01/05 06:10:32;;;;;;;0.60;0.60;;;4.10;98.80;;;;;;6245232;22;20204;-85
2022/01/05 06:12:59;;;;;;;2.07;0.80;;;4.00;98.90;;;;;;6246085;22;20488;-84
2022/01/05 06:15:26;;;;;;;0.60;0.60;;;4.00;99.00;;;;;;6245330;22;20555;-84
2022/01/05 06:17:53;;;;;;;0.60;0.60;;;4.10;99.20;;;;;;6245244;22;20232;-83
2022/01/05 06:20:22;;;;;;;0.60;0.60;;;4.10;98.90;;;;;;6245372;22;20204;-87
2022/01/05 06:22:49;;;;;;;1.50;1.03;;;4.10;98.80;;;;;;6245837;22;20173;-84
2022/01/05 06:25:16;;;;;;;0.50;0.50;;;4.10;98.80;;;;;;6245038;22;20205;-85
2022/01/05 06:27:44;;;;;;;0.93;0.90;;;4.00;98.90;;;;;;6245613;22;20166;-84
2022/01/05 06:30:12;;;;;;;1.37;0.50;;;4.10;99.00;;;;;;6244860;22;20227;-85
2022/01/05 06:32:45;;;;;;;0.50;0.50;;;4.10;98.80;;;;;;6245566;22;20169;-86
2022/01/05 06:35:13;;;;;;;2.60;0.60;;;4.10;98.70;;;;;;6244759;22;20197;-84
2022/01/05 06:37:42;;;;;;;0.60;0.60;;;4.10;98.90;;;;;;6245497;22;20170;-86
2022/01/05 06:40:10;;;;;;;0.50;0.50;;;4.10;99.10;;;;;;6244513;22;20196;-84
2022/01/05 06:42:36;;;;;;;0.70;0.70;;;4.10;98.90;;;;;;6245744;22;20175;-83
2022/01/05 06:45:05;;;;;;;0.80;0.70;;;4.00;98.90;;;;;;6245490;22;20573;-86
2022/01/05 06:47:31;;;;;;;0.80;0.80;;;4.10;99.00;;;;;;6245163;22;20173;-84
2022/01/05 06:49:58;;;;;;;0.60;0.60;;;4.10;99.20;;;;;;6244889;22;20559;-86
2022/01/05 06:52:25;;;;;;;0.90;0.80;;;4.20;98.90;;;;;;6245768;22;20165;-87
2022/01/05 06:54:54;;;;;;;1.43;0.50;;;4.20;99.00;;;;;;6244661;22;20668;-84
2022/01/05 06:57:21;;;;;;;0.60;0.60;;;4.20;99.30;;;;;;6245339;22;20176;-85
2022/01/05 06:59:48;;;;;;;0.50;0.50;;;4.30;99.30;;;;;;6244211;22;20514;-87
2022/01/05 07:02:15;;;;;;;0.50;0.50;;;4.30;99.00;;;;;;6245198;22;20169;-84
2022/01/05 07:04:42;;;;;;;0.60;0.60;;;4.30;99.10;;;;;;6243936;22;20431;-84
2022/01/05 07:07:09;;;;;;;0.83;0.67;;;4.40;99.00;;;;;;6245264;22;20679;-85
2022/01/05 07:09:36;;;;;;;0.70;0.70;;;4.30;99.20;;;;;;6244603;22;20165;-84
2022/01/05 07:12:06;;;;;;;0.97;0.60;;;4.30;99.20;;;;;;6245454;22;20199;-84
2022/01/05 07:14:33;;;;;;;0.73;0.73;;;4.40;99.00;;;;;;6244469;22;20170;-84
2022/01/05 07:17:01;;;;;;;0.90;0.67;;;4.50;98.70;;;;;;6245396;22;20193;-84
2022/01/05 07:19:28;;;;;;;0.70;0.60;;;4.60;98.60;;;;;;6244972;22;20166;-84
2022/01/05 07:21:54;;;;;;;0.50;0.50;;;4.50;98.70;;;;;;6244807;22;20496;-83
2022/01/05 07:24:21;;;;;;;0.63;0.63;;;4.50;98.80;;;;;;6244420;22;20228;-84
2022/01/05 07:26:49;;;;;;;0.83;0.60;;;4.50;98.70;;;;;;6243778;22;20521;-85
2022/01/05 07:29:19;;;;;;;0.50;0.50;;;4.50;98.60;;;;;;6244682;22;20248;-85
2022/01/05 07:31:46;;;;;;;0.50;0.50;;;4.50;98.40;;;;;;6244541;22;20290;-84
2022/01/05 07:34:14;;;;;;;0.60;0.60;;;4.50;98.30;;;;;;6245903;22;20640;-86
2022/01/05 07:36:42;;;;;;;0.57;0.57;;;4.40;98.60;;;;;;6244735;22;20197;-84
2022/01/05 07:39:09;;;;;;;0.57;0.57;;;4.40;98.50;;;;;;6244491;22;20256;-85
2022/01/05 07:41:38;;;;;;;0.60;0.60;;;4.30;98.80;;;;;;6244671;22;20196;-84
2022/01/05 07:44:06;;;;;;;2.77;0.80;;;4.40;98.90;;;;;;6245822;22;20169;-84
2022/01/05 07:46:35;;;;;;;0.63;0.63;;;4.40;98.70;;;;;;6246218;22;20201;-85
2022/01/05 07:49:03;;;;;;;0.60;0.60;;;4.50;98.70;;;;;;6246309;22;20175;-86
2022/01/05 07:51:30;;;;;;;0.60;0.60;;;4.40;99.00;;;;;;6244221;22;20633;-84
2022/01/05 07:53:57;;;;;;;0.80;0.63;;;4.40;99.20;;;;;;6244625;22;20172;-83
2022/01/05 07:56:24;;;;;;;0.90;0.70;;;4.40;98.90;;;;;;6244226;23;20197;-86
2022/01/05 07:58:52;;;;;;;0.90;0.90;;;4.50;98.80;;;;;;6245508;22;20165;-83
2022/01/05 08:01:19;;;;;;;0.60;0.60;;;4.50;98.80;;;;;;6247203;22;20291;-84
2022/01/05 08:03:49;;;;;;;0.60;0.60;;;4.60;98.60;;;;;;6246319;22;20256;-84
2022/01/05 08:06:17;;;;;;;0.50;0.50;;;4.60;98.30;;;;;;6246311;22;20491;-83
2022/01/05 08:08:44;;;;;;;0.50;0.50;;;4.60;98.40;;;;;;6247428;22;20188;-83
2022/01/05 08:11:11;;;;;;;0.70;0.70;;;4.60;98.40;;;;;;6247381;22;20203;-84
2022/01/05 08:13:38;;;;;;;0.93;0.80;;;4.50;98.70;;;;;;6248309;22;20169;-83
2022/01/05 08:16:06;;;;;;;0.57;0.57;;;4.50;98.90;;;;;;6247796;22;20509;-83
2022/01/05 08:18:33;;;;;;;0.70;0.70;;;4.50;98.70;;;;;;6247843;22;20154;-85
2022/01/05 08:21:01;;;;;;;1.10;0.70;;;4.50;98.70;;;;;;6247479;22;20239;-84
2022/01/05 08:23:29;;;;;;;0.70;0.70;;;4.60;98.30;;;;;;6247984;22;20684;-83
2022/01/05 08:25:56;;;;;;;1.30;0.73;;;4.50;98.50;;;;;;6247222;22;20720;-84
2022/01/05 08:28:23;;;;;;;0.70;0.70;;;4.50;98.30;;;;;;6250818;22;20256;-83
2022/01/05 08:30:51;;;;;;;0.70;0.70;;;4.50;98.10;;;;;;6244738;22;20636;-85
2022/01/05 08:33:18;;;;;;;0.60;0.60;;;4.40;98.30;;;;;;6246568;22;20180;-85
2022/01/05 08:35:46;;;;;;;0.70;0.70;;;4.40;98.20;;;;;;6246098;22;20256;-84
2022/01/05 08:38:16;;;;;;;0.63;0.63;;;4.50;98.30;;;;;;6246774;22;20173;-85
2022/01/05 08:40:44;;;;;;;0.70;0.70;;;4.50;98.50;;;;;;6245254;22;20263;-86
2022/01/05 08:43:12;;;;;;;0.50;0.50;;;4.40;98.80;;;;;;6246587;22;20169;-84
2022/01/05 08:45:40;;;;;;;0.70;0.70;;;4.40;98.60;;;;;;6245925;22;20203;-84
2022/01/05 08:48:07;;;;;;;0.47;0.47;;;4.40;98.00;;;;;;6245820;22;20172;-84
2022/01/05 08:50:35;;;;;;;0.60;0.60;;;4.30;97.90;;;;;;6245977;22;20213;-84
2022/01/05 08:53:03;;;;;;;0.67;0.67;;;4.40;98.20;;;;;;6247821;22;20522;-83
2022/01/05 08:55:36;;;;;;;0.70;0.70;;;4.40;98.20;;;;;;6249226;22;20682;-84
2022/01/05 08:58:04;;;;;;;0.63;0.63;;;4.40;98.50;;;;;;6246035;22;20362;-83
2022/01/05 09:00:32;;;;;;;0.70;0.70;;;4.50;98.50;;;;;;6248988;22;20688;-84
2022/01/05 09:03:00;;;;;;;0.70;0.70;;;4.50;98.00;;;;;;6249131;22;20636;-83
2022/01/05 09:05:27;;;;;;;2.10;0.80;;;4.70;97.40;;;;;;6248569;22;20644;-83
2022/01/05 09:07:54;;;;;;;0.70;0.70;;;4.80;96.80;;;;;;6250121;22;20590;-84
2022/01/05 09:10:21;;;;;;;0.60;0.60;;;4.70;97.20;;;;;;6248195;22;20199;-83
2022/01/05 09:12:50;;;;;;;0.60;0.60;;;4.70;97.00;;;;;;6250169;22;20166;-83
2022/01/05 09:15:17;;;;;;;0.83;0.80;;;4.80;96.90;;;;;;6249743;22;20248;-84
2022/01/05 09:17:44;;;;;;;1.20;0.60;;;4.70;96.90;;;;;;6250515;22;20193;-85
2022/01/05 09:20:12;;;;;;;0.70;0.70;;;4.70;96.60;;;;;;6250006;22;20289;-83
2022/01/05 09:22:39;;;;;;;0.80;0.80;;;4.70;96.80;;;;;;6251517;22;20176;-82
2022/01/05 09:25:07;;;;;;;0.90;0.70;;;4.60;95.80;;;;;;6250927;22;20276;-84
2022/01/05 09:27:34;;;;;;;0.90;0.60;;;4.50;95.40;;;;;;6250989;22;20180;-84
2022/01/05 09:30:03;;;;;;;1.47;1.00;;;4.50;95.00;;;;;;6249618;22;20200;-84
2022/01/05 09:32:30;;;;;;;0.97;0.90;;;4.40;95.00;;;;;;6250587;22;20193;-85
2022/01/05 09:34:57;;;;;;;1.10;0.90;;;4.40;94.70;;;;;;6249972;22;20252;-87
2022/01/05 09:37:27;;;;;;;1.10;1.00;;;4.30;94.90;;;;;;6250089;22;20271;-83
2022/01/05 09:42:41;;;;;;;2.37;1.23;;;4.40;94.60;;;;;;6250203;23;20156;-83
2022/01/05 09:45:19;;;;;;;1.30;1.20;;;4.30;94.20;;;;;;6249319;22;20520;-83
2022/01/05 09:48:11;;;;;;;1.30;1.20;;;4.40;94.30;;;;;;6250746;22;20589;-83
2022/01/05 09:50:46;;;;;;;1.60;1.50;;;4.30;94.20;;;;;;6250700;22;20526;-83
2022/01/05 09:53:14;;;;;;;1.70;1.60;;;4.30;93.50;;;;;;6251226;22;20153;-88
2022/01/05 09:55:42;;;;;;;1.60;1.50;;;4.10;93.60;;;;;;6250631;22;20200;-83
2022/01/05 09:58:09;;;;;;;1.80;1.70;;;4.10;94.60;;;;;;6250428;22;20476;-83
2022/01/05 10:00:37;;;;;;;1.90;1.73;;;4.10;94.40;;;;;;6249880;22;20525;-84
2022/01/05 10:03:07;;;;;;;1.83;1.73;;;4.10;94.00;;;;;;6248888;23;20177;-83
2022/01/05 10:05:34;;;;;;;1.83;1.73;;;4.10;94.10;;;;;;6249928;22;20194;-84
2022/01/05 10:08:01;;;;;;;1.97;1.77;;;4.10;94.10;;;;;;6250115;22;20176;-83
2022/01/05 10:10:28;;;;;;;2.20;2.00;;;3.90;93.90;;;;;;6249968;22;20688;-82
2022/01/05 10:12:56;;;;;;;2.07;1.97;;;3.80;94.20;;;;;;6250438;22;20200;-83
2022/01/05 10:15:26;;;;;;;2.37;2.03;;;3.80;94.80;;;;;;6250472;22;20259;-82
2022/01/05 10:18:09;;;;;;;2.07;1.90;;;3.70;94.80;;;;;;6249705;22;20197;-84
2022/01/05 10:20:36;;;;;;;2.90;2.00;;;3.90;94.10;;;;;;6247409;22;20203;-85
2022/01/05 10:23:03;;;;;;;2.27;2.07;;;3.90;93.60;;;;;;6248190;22;20253;-83
2022/01/05 10:25:30;;;;;;;2.60;2.30;;;3.90;93.90;;;;;;6247710;22;20277;-83
2022/01/05 10:27:59;;;;;;;3.00;2.30;;;4.00;93.60;;;;;;6248016;22;20176;-83
2022/01/05 10:30:36;;;;;;;2.47;1.97;;;4.20;93.80;;;;;;6248206;22;20193;-86
2022/01/05 10:33:05;;;;;;;2.27;2.07;;;4.30;93.00;;;;;;6245627;22;20182;-85
2022/01/05 10:35:33;;;;;;;2.77;2.37;;;4.40;92.20;;;;;;6247473;22;20197;-84
2022/01/05 10:38:03;;;;;;;2.30;2.10;;;4.40;92.00;;;;;;6249497;22;20181;-84
2022/01/05 10:40:34;;;;;;;2.50;2.30;;;4.20;92.30;;;;;;6247635;22;20547;-84
2022/01/05 10:43:08;;;;;;;2.20;2.00;;;4.40;92.60;;;;;;6245816;22;20158;-86
2022/01/05 10:45:40;;;;;;;2.20;2.00;;;4.60;92.10;;;;;;6246261;22;20212;-85
2022/01/05 10:48:11;;;;;;;2.37;2.00;;;4.60;90.70;;;;;;6246770;22;20232;-85
2022/01/05 10:50:39;;;;;;;2.13;1.93;;;4.40;91.20;;;;;;6248084;22;20197;-85
2022/01/05 10:53:08;;;;;;;2.67;2.10;;;4.50;90.90;;;;;;6248417;22;20196;-85
2022/01/05 10:55:41;;;;;;;2.13;1.77;;;4.70;90.80;;;;;;6248387;22;20197;-85
2022/01/05 10:58:10;;;;;;;2.20;2.00;;;4.70;90.00;;;;;;6249759;22;20153;-85
2022/01/05 11:00:40;;;;;;;2.43;2.17;;;4.60;88.70;;;;;;6245160;22;20247;-86
2022/01/05 11:03:27;;;;;;;2.93;1.80;;;4.50;88.70;;;;;;6246541;22;20173;-84
2022/01/05 11:06:09;;;;;;;2.40;1.90;;;4.40;90.00;;;;;;6244941;22;20196;-84
2022/01/05 11:08:49;;;;;;;2.70;1.60;;;4.30;89.70;;;;;;6247911;22;20260;-85
2022/01/05 11:11:36;;;;;;;2.03;1.67;;;4.40;88.60;;;;;;6245693;22;20205;-86
2022/01/05 11:14:04;;;;;;;2.73;1.67;;;4.30;88.50;;;;;;6245974;22;20160;-85
2022/01/05 11:16:32;;;;;;;2.67;1.50;;;4.30;89.60;;;;;;6247339;22;20197;-84
2022/01/05 11:19:18;;;;;;;2.53;1.67;;;4.50;86.80;;;;;;6245607;23;20165;-85
2022/01/05 11:22:05;;;;;;;2.13;1.60;;;4.30;88.60;;;;;;6249131;22;20197;-83
2022/01/05 11:24:36;;;;;;;2.33;1.67;;;4.10;88.40;;;;;;6247284;22;20164;-85
2022/01/05 11:27:06;;;;;;;1.50;1.40;;;4.10;88.50;;;;;;6247278;22;20204;-85
2022/01/05 11:29:34;;;;;;;1.70;1.60;;;4.10;88.40;;;;;;6247168;22;20174;-84
2022/01/05 11:32:02;;;;;;;1.57;1.43;;;3.90;88.30;;;;;;6248127;22;20193;-83
2022/01/05 11:34:31;;;;;;;2.60;1.60;;;3.90;89.90;;;;;;6246678;22;20193;-84
2022/01/05 11:37:01;;;;;;;3.73;1.70;;;3.80;89.80;;;;;;6247180;22;20757;-84
2022/01/05 11:39:29;;;;;;;2.03;1.60;;;3.80;90.40;;;;;;6247266;22;20666;-85
2022/01/05 11:41:58;;;;;;;2.47;1.47;;;3.70;90.40;;;;;;6247497;22;20661;-83
2022/01/05 11:44:28;;;;;;;2.00;1.70;;;3.50;88.00;;;;;;6246884;22;20528;-85
2022/01/05 11:46:55;;;;;;;2.30;1.43;;;3.40;88.40;;;;;;6245390;22;20230;-85
2022/01/05 11:49:26;;;;;;;2.87;1.50;;;3.30;87.90;;;;;;6245437;22;20176;-83
2022/01/05 11:51:58;;;;;;;3.33;1.50;;;3.20;84.10;;;;;;6245168;22;20595;-84
2022/01/05 11:54:26;;;;;;;3.53;1.50;;;3.10;84.20;;;;;;6245940;22;20649;-85
2022/01/05 11:56:55;;;;;;;2.13;1.80;;;3.10;84.40;;;;;;6246172;22;20201;-83
2022/01/05 11:59:33;;;;;;;3.40;1.77;;;3.00;83.30;;;;;;6245624;22;20173;-84
2022/01/05 12:02:12;;;;;;;2.00;1.30;;;3.00;82.80;;;;;;6245928;22;20309;-82
2022/01/05 12:05:01;;;;;;;2.20;1.40;;;3.10;77.40;;;;;;6244927;22;20161;-84
2022/01/05 12:07:40;;;;;;;2.57;1.30;;;3.20;78.40;;;;;;6245879;22;20167;-84
2022/01/05 12:10:18;;;;;;;3.43;1.50;;;3.10;77.00;;;;;;6245056;22;20239;-83
2022/01/05 12:13:03;;;;;;;3.13;1.30;;;3.00;76.40;;;;;;6246401;22;20660;-86
2022/01/05 12:15:50;;;;;;;3.63;1.60;;;3.10;78.20;;;;;;6245922;22;20196;-83
2022/01/05 12:18:25;;;;;;;2.77;1.60;;;3.00;78.30;;;;;;6247977;22;20380;-83
2022/01/05 12:20:54;;;;;;;1.40;1.30;;;3.10;78.10;;;;;;6247444;22;20236;-83
2022/01/05 12:23:25;;;;;;;2.80;1.40;;;3.30;77.10;;;;;;6247930;22;20462;-83
2022/01/05 12:26:17;;;;;;;2.13;1.40;;;3.20;74.00;;;;;;6246995;22;20197;-84
2022/01/05 12:28:53;;;;;;;4.43;1.90;;;3.10;76.40;;;;;;6247268;22;20193;-84
2022/01/05 12:31:58;;;;;;;2.63;1.80;;;3.20;76.40;;;;;;6249188;22;20272;-86
2022/01/05 12:34:50;;;;;;;3.00;1.87;;;3.40;75.70;;;;;;6249008;22;20153;-83
2022/01/05 12:37:39;;;;;;;2.93;1.60;;;3.50;68.10;;;;;;6250795;22;20550;-85
2022/01/05 12:40:25;;;;;;;4.20;1.60;;;3.50;72.60;;;;;;6249641;22;20196;-83
2022/01/05 12:43:34;;;;;;;3.33;1.47;;;3.60;70.90;;;;;;6249498;22;20268;-83
2022/01/05 12:46:11;;;;;;;3.40;1.90;;;3.50;72.60;;;;;;6249553;22;20224;-83
2022/01/05 12:49:02;;;;;;;3.80;1.70;;;3.50;71.80;;;;;;6249106;22;20157;-83
2022/01/05 12:51:52;;;;;;;3.87;1.70;;;3.50;74.70;;;;;;6249818;22;20232;-85
2022/01/05 12:54:25;;;;;;;4.30;1.87;;;3.50;74.30;;;;;;6250492;22;20169;-83
2022/01/05 12:56:55;;;;;;;2.83;1.80;;;3.50;74.60;;;;;;6250207;22;20193;-83
2022/01/05 12:59:28;;;;;;;3.00;1.60;;;3.40;73.60;;;;;;6251367;22;20172;-84
2022/01/05 13:01:57;;;;;;;5.23;1.77;;;3.50;73.20;;;;;;6251434;22;20186;-86
2022/01/05 13:04:26;;;;;;;4.67;1.80;;;3.40;73.60;;;;;;6251104;22;20170;-83
2022/01/05 13:06:57;;;;;;;4.57;1.70;;;3.40;72.10;;;;;;6250930;22;20200;-83
2022/01/05 13:09:27;;;;;;;4.03;1.77;;;3.10;72.10;;;;;;6250768;23;20232;-84
2022/01/05 13:11:59;;;;;;;4.23;1.63;;;3.10;76.00;;;;;;6251079;22;20220;-86